Latest Weather Observations for Camden

IDN60901

Issued at 3:12 pm EDT Monday 26 January 2015 (issued every 10 minutes, with the page automatically refreshed every 10 minutes)

About weather observations | Map of Sydney area stations | Latest observations for Sydney area | Other Formats
Station Details ID: 068192 Name: CAMDEN AIRPORT AWS Lat: -34.04 Lon: 150.69 Height: 73.9 m
Data from the previous 72 hours. | See also: Recent months at Camden
Date/Time
EDT
Tmp

°C
App
Tmp
°C
Dew
Point
°C
Rel
Hum
%
Delta-T

°C
Wind Press
QNH
hPa
Press
MSL
hPa
Rain
since
9 am
mm
Dir
 
Spd
km/h
Gust
km/h
Spd
kts
Gust
kts
26/03:00pm 20.6 18.4 13.3 63 4.2 S 17 24 9 13 1013.8 1013.5 0.0
26/02:30pm 20.3 19.0 13.7 66 3.8 SSE 13 19 7 10 1013.9 1013.6 0.0
26/02:00pm 19.8 18.5 13.7 68 3.5 S 13 19 7 10 1014.2 1013.9 0.0
26/01:30pm 19.3 17.6 13.7 70 3.2 SSE 15 22 8 12 1014.4 1014.1 0.0
26/01:00pm 19.4 17.8 13.8 70 3.2 S 15 20 8 11 1014.4 1014.1 0.0
26/12:30pm 20.1 18.7 13.3 65 3.9 SE 13 20 7 11 1014.3 1014.0 0.0
26/12:00pm 20.6 19.0 13.8 65 3.9 SSE 15 24 8 13 1014.2 1013.9 0.0
26/11:30am 20.5 19.6 13.7 65 3.9 S 11 15 6 8 1014.3 1014.0 0.0
26/11:00am 20.3 17.8 13.5 65 3.9 SSE 19 24 10 13 1014.1 1013.8 0.0
26/10:30am 20.5 18.4 13.7 65 3.9 SSE 17 28 9 15 1014.0 1013.7 0.0
26/10:00am 20.3 18.6 13.7 66 3.8 SSE 15 20 8 11 1014.1 1013.8 0.0
26/09:30am 20.3 18.2 13.7 66 3.8 S 17 24 9 13 1013.9 1013.6 0.0
26/09:00am 20.2 19.0 13.9 67 3.6 S 13 20 7 11 1013.7 1013.4 0.0
26/08:30am 20.1 19.7 14.2 69 3.4 S 9 15 5 8 1013.6 1013.3 0.0
26/08:00am 19.9 19.6 14.3 70 3.3 SSW 9 15 5 8 1013.1 1012.8 0.0
26/07:30am 19.5 19.1 14.1 71 3.1 SSW 9 13 5 7 1012.8 1012.5 0.0
26/07:00am 19.3 18.5 14.1 72 3.0 SSW 11 17 6 9 1012.5 1012.2 0.0
26/06:30am 19.2 18.8 14.2 73 2.9 S 9 15 5 8 1012.2 1011.9 0.0
26/04:30am 19.5 18.9 14.7 74 2.8 S 11 19 6 10 1011.2 1010.9 0.0
26/04:00am 19.6 18.6 14.6 73 2.9 S 13 20 7 11 1011.1 1010.8 0.0
26/03:30am 19.7 19.2 14.9 74 2.8 S 11 17 6 9 1011.0 1010.7 0.0
26/03:00am 19.8 19.0 15.0 74 2.8 S 13 20 7 11 1010.9 1010.6 0.0
26/02:30am 20.0 18.8 15.0 73 2.9 S 15 22 8 12 1010.8 1010.5 0.0
26/02:00am 20.1 20.1 15.1 73 3.0 SSE 9 17 5 9 1011.1 1010.8 0.0
26/01:30am 20.2 19.4 15.2 73 3.0 SSE 13 19 7 10 1011.0 1010.7 0.0
26/01:00am 20.2 19.9 15.4 74 2.9 SSE 11 15 6 8 1010.9 1010.6 0.0
26/12:30am 20.2 19.1 15.2 73 3.0 SSE 15 22 8 12 1010.9 1010.6 0.0
 
Date/Time
EDT
Tmp

°C
App
Tmp
°C
Dew
Point
°C
Rel
Hum
%
Delta-T

°C
Wind Press
QNH
hPa
Press
MSL
hPa
Rain
since
9 am
mm
Dir
 
Spd
km/h
Gust
km/h
Spd
kts
Gust
kts
25/11:30pm 20.9 19.0 15.7 72 3.1 SSE 20 28 11 15 1010.3 1010.0 0.0
25/11:00pm 21.0 20.6 16.2 74 2.9 SSE 13 17 7 9 1010.0 1009.7 0.0
25/10:30pm 21.5 21.3 16.7 74 2.9 SSE 13 22 7 12 1009.7 1009.4 0.0
25/10:00pm 21.4 20.9 16.8 75 2.8 SSE 15 20 8 11 1009.2 1008.9 0.0
25/09:30pm 21.3 19.9 16.5 74 2.9 SSE 19 24 10 13 1008.6 1008.3 0.0
25/08:30pm 22.4 21.1 16.7 70 3.5 SSE 19 32 10 17 1006.6 1006.2 0.0
25/08:00pm 24.8 22.9 16.8 61 5.0 SE 22 32 12 17 1005.4 1005.0 0.0
25/07:50pm 26.1 23.7 16.4 55 6.0 SE 24 32 13 17 1005.1 1004.7 0.0
25/07:30pm 31.1 28.3 9.9 27 12.1 SSW 15 20 8 11 1004.3 1003.9 0.0
25/07:00pm 32.3 28.9 9.2 24 13.1 SSW 17 22 9 12 1003.7 1003.3 0.0
25/06:30pm 33.3 30.1 10.0 24 13.4 SW 17 24 9 13 1003.2 1002.8 0.0
25/05:30pm 33.9 29.9 10.5 24 13.6 SW 22 32 12 17 1002.5 1002.1 0.0
25/05:00pm 34.6 32.1 12.3 26 13.4 WSW 17 24 9 13 1002.3 1001.9 0.0
25/04:30pm 34.5 30.3 11.0 24 13.8 WSW 24 35 13 19 1002.1 1001.7 0.0
25/04:00pm 34.3 29.8 11.4 25 13.6 SW 26 39 14 21 1002.0 1001.6 0.0
25/03:30pm 34.8 31.6 13.0 26 13.2 WSW 22 39 12 21 1002.1 1001.7 0.0
25/03:00pm 34.9 32.2 14.7 29 12.6 W 22 32 12 17 1002.0 1001.6 0.0
25/02:30pm 34.3 31.6 15.7 32 11.7 WSW 24 41 13 22 1001.7 1001.3 0.0
25/02:00pm 34.4 33.4 18.8 39 10.3 WSW 22 33 12 18 1001.6 1001.2 0.0
25/01:30pm 32.9 34.3 18.7 43 9.3 NNW 9 17 5 9 1001.8 1001.4 0.0
25/01:00pm 32.9 35.3 19.7 45 8.8 NW 6 17 3 9 1001.9 1001.5 0.0
25/12:30pm 31.8 34.2 18.7 45 8.5 N 4 11 2 6 1002.1 1001.7 0.0
25/12:00pm 30.9 33.3 19.6 51 7.5 NE 6 11 3 6 1002.5 1002.1 0.0
25/11:30am 29.8 32.2 20.1 56 6.4 N 7 11 4 6 1002.9 1002.5 0.0
25/11:00am 28.2 30.5 19.4 59 5.7 NNW 6 11 3 6 1002.9 1002.5 0.0
25/10:30am 27.3 30.3 20.1 64 4.7 NNW 4 7 2 4 1003.1 1002.7 0.0
25/10:00am 25.8 28.2 18.7 65 4.6 NNE 4 7 2 4 1003.2 1002.8 0.0
25/09:30am 24.7 27.2 19.1 71 3.6 NNE 4 7 2 4 1003.2 1002.8 0.0
25/09:00am 23.0 26.3 19.2 79 2.4 CALM 0 6 0 3 1003.4 1003.0 6.6
25/08:47am 22.5 26.0 19.5 83 1.9 CALM 0 2 0 1 1003.4 1003.0 6.6
25/08:30am 22.1 24.9 20.9 93 0.8 N 7 9 4 5 1003.5 1003.1 6.6
25/08:14am 21.1 23.9 20.8 98 0.2 N 7 9 4 5 1003.4 1003.0 6.6
25/08:00am 20.2 22.6 20.0 99 0.1 NW 7 9 4 5 1003.4 1003.0 6.6
25/07:30am 19.6 23.0 19.4 99 0.1 CALM 0 0 0 0 1003.3 1002.9 6.6
25/07:29am 19.6 23.0 19.4 99 0.1 CALM 0 0 0 0 1003.2 1002.8 6.6
25/07:21am 19.6 23.0 19.4 99 0.1 CALM 0 0 0 0 1003.1 1002.7 6.6
25/07:20am 19.6 23.0 19.4 99 0.1 CALM 0 0 0 0 1003.1 1002.7 6.6
25/07:00am 19.1 22.3 18.9 99 0.1 CALM 0 0 0 0 1003.0 1002.6 6.6
25/06:45am 19.1 22.3 18.9 99 0.1 CALM 0 0 0 0 1002.7 1002.3 6.6
25/06:30am 18.8 21.8 18.5 98 0.2 CALM 0 0 0 0 1002.4 1002.0 6.6
25/06:24am 18.7 21.7 18.4 98 0.2 CALM 0 0 0 0 1002.4 1002.0 6.6
25/06:15am 18.9 22.0 18.7 99 0.1 CALM 0 0 0 0 1002.4 1002.0 6.6
25/06:05am 19.0 22.1 18.7 98 0.2 CALM 0 0 0 0 1002.2 1001.8 6.6
25/06:00am 18.9 22.0 18.6 98 0.2 CALM 0 0 0 0 1002.2 1001.8 6.6
25/05:30am 19.1 21.5 18.9 99 0.1 ESE 4 9 2 5 1002.1 1001.7 6.6
25/05:00am 19.0 20.8 18.7 98 0.2 ESE 7 9 4 5 1002.2 1001.8 6.6
25/04:46am 19.1 21.5 18.8 98 0.2 ESE 4 7 2 4 1002.2 1001.8 6.6
25/04:30am 19.0 22.1 18.7 98 0.2 CALM 0 0 0 0 1002.2 1001.8 6.6
25/04:13am 19.4 22.7 19.2 99 0.1 CALM 0 0 0 0 1002.4 1002.0 6.6
25/04:00am 19.4 22.7 19.2 99 0.1 CALM 0 0 0 0 1002.4 1002.0 6.6
25/03:48am 19.1 22.3 18.8 98 0.2 CALM 0 0 0 0 1002.5 1002.1 6.6
25/03:45am 19.1 22.3 18.8 98 0.2 CALM 0 0 0 0 1002.5 1002.1 6.6
25/03:30am 19.2 22.4 18.9 98 0.2 CALM 0 0 0 0 1002.7 1002.3 6.6
25/03:00am 19.4 21.4 19.2 99 0.1 S 7 9 4 5 1003.0 1002.6 6.6
25/02:48am 19.3 21.2 19.0 98 0.2 SE 7 9 4 5 1003.3 1002.9 6.6
25/02:34am 19.3 21.1 18.8 97 0.3 ESE 7 7 4 4 1003.5 1003.1 6.6
25/02:30am 19.4 21.5 18.9 97 0.3 SE 6 7 3 4 1003.7 1003.3 6.6
25/02:14am 19.6 22.8 18.9 96 0.4 CALM 0 2 0 1 1004.0 1003.6 6.6
25/02:00am 19.8 22.7 19.1 96 0.4 W 2 9 1 5 1004.3 1003.9 6.6
25/01:30am 19.9 23.2 19.1 95 0.5 CALM 0 0 0 0 1004.8 1004.4 6.6
25/01:00am 20.2 22.9 19.5 96 0.4 N 4 7 2 4 1005.0 1004.6 6.6
25/12:30am 20.3 23.8 19.5 95 0.5 CALM 0 0 0 0 1005.5 1005.1 6.6
25/12:00am 20.3 22.5 19.5 95 0.5 NNW 7 9 4 5 1005.8 1005.4 6.6
 
Date/Time
EDT
Tmp

°C
App
Tmp
°C
Dew
Point
°C
Rel
Hum
%
Delta-T

°C
Wind Press
QNH
hPa
Press
MSL
hPa
Rain
since
9 am
mm
Dir
 
Spd
km/h
Gust
km/h
Spd
kts
Gust
kts
24/11:30pm 20.5 22.8 19.8 96 0.4 NNW 7 11 4 6 1005.7 1005.3 6.6
24/11:00pm 20.6 21.4 19.8 95 0.5 NW 15 17 8 9 1006.0 1005.6 6.6
24/10:42pm 20.6 23.6 19.3 92 0.8 SSE 2 7 1 4 1005.8 1005.4 6.4
24/10:30pm 20.5 22.5 19.2 92 0.8 S 7 9 4 5 1005.9 1005.5 6.2
24/10:13pm 20.7 22.7 19.2 91 0.9 SSE 7 11 4 6 1006.7 1006.3 4.2
24/10:00pm 20.8 22.3 18.9 89 1.2 SSE 9 13 5 7 1006.7 1006.3 2.8
24/09:30pm 21.7 21.2 18.7 83 1.9 W 19 24 10 13 1007.4 1007.1 1.2
24/09:00pm 24.9 27.2 19.5 72 3.5 SW 6 17 3 9 1006.6 1006.2 0.0
24/08:30pm 25.4 27.1 18.1 64 4.6 E 6 6 3 3 1005.6 1005.2 0.0
24/08:00pm 25.8 26.9 18.0 62 4.9 ENE 9 11 5 6 1005.4 1005.0 0.0
24/07:30pm 26.2 27.1 17.6 59 5.4 E 9 15 5 8 1005.2 1004.8 0.0
24/07:00pm 26.7 27.2 17.5 57 5.8 ENE 11 15 6 8 1004.7 1004.3 0.0
24/06:30pm 27.3 27.9 17.8 56 6.0 E 11 15 6 8 1003.9 1003.5 0.0
24/06:00pm 27.7 28.3 17.8 54 6.3 ENE 11 17 6 9 1003.9 1003.5 0.0
24/05:30pm 28.2 28.0 17.7 53 6.7 ENE 15 28 8 15 1003.3 1002.9 0.0
24/05:00pm 28.8 28.3 17.7 51 7.1 ENE 17 26 9 14 1003.2 1002.8 0.0
24/04:30pm 29.6 29.4 18.4 51 7.2 ENE 17 26 9 14 1003.5 1003.1 0.0
24/04:00pm 30.3 29.8 18.7 50 7.5 ENE 19 26 10 14 1003.8 1003.4 0.0
24/03:30pm 31.2 30.9 19.2 48 7.9 NE 19 33 10 18 1003.6 1003.2 0.0
24/03:00pm 32.2 33.1 20.1 48 8.1 NNE 15 22 8 12 1004.0 1003.6 0.0
24/02:30pm 32.1 33.6 21.3 53 7.3 NNW 15 22 8 12 1004.4 1004.0 0.0
24/02:00pm 31.4 34.1 21.3 55 6.8 NE 9 15 5 8 1005.2 1004.8 0.0
24/01:30pm 30.4 33.6 21.2 58 6.2 NNW 6 15 3 8 1005.8 1005.4 0.0
24/01:00pm 29.7 32.9 21.6 61 5.5 WNW 7 13 4 7 1006.3 1005.9 0.0
24/12:30pm 28.6 31.7 21.1 64 5.0 WNW 6 13 3 7 1006.8 1006.4 0.0
24/12:00pm 28.7 32.9 21.7 66 4.7 NNW 2 9 1 5 1007.4 1007.1 0.0
24/11:30am 27.8 30.9 21.1 67 4.5 SW 6 11 3 6 1007.6 1007.3 0.0
24/11:00am 26.7 30.4 20.8 70 3.9 WNW 2 9 1 5 1007.9 1007.6 0.0
24/10:30am 25.8 29.2 20.1 71 3.7 NE 2 6 1 3 1008.1 1007.8 0.0
24/10:00am 25.2 29.4 20.9 77 2.8 CALM 0 0 0 0 1008.3 1008.0 0.0
24/09:30am 24.1 28.1 20.6 81 2.3 CALM 0 0 0 0 1008.4 1008.1 0.0
24/09:27am 24.2 28.4 20.9 82 2.2 CALM 0 0 0 0 1008.4 1008.1 0.0
24/09:00am 23.6 28.0 21.3 87 1.5 CALM 0 0 0 0 1008.5 1008.2 4.2
24/08:30am 23.0 27.3 21.1 89 1.2 CALM 0 0 0 0 1008.3 1008.0 4.2
24/08:00am 22.4 26.6 21.0 92 0.9 CALM 0 0 0 0 1008.1 1007.8 4.2
24/07:30am 21.7 25.7 21.4 98 0.2 ESE 2 7 1 4 1008.0 1007.7 4.2
24/07:00am 21.1 24.5 20.9 99 0.1 ESE 4 6 2 3 1007.9 1007.6 4.2
24/06:30am 21.0 24.0 20.8 99 0.1 SSE 6 7 3 4 1007.7 1007.4 4.2
24/06:00am 20.6 24.5 20.4 99 0.1 CALM 0 7 0 4 1007.5 1007.2 4.2
24/05:30am 20.4 24.2 20.2 99 0.1 CALM 0 0 0 0 1007.2 1006.9 4.2
24/05:25am 20.3 24.1 20.1 99 0.1 CALM 0 0 0 0 1007.2 1006.9 4.2
24/05:01am 19.7 23.1 19.4 98 0.2 CALM 0 0 0 0 1007.0 1006.7 4.2
24/05:00am 19.6 23.0 19.3 98 0.2 CALM 0 0 0 0 1007.0 1006.7 4.2
24/04:49am 19.9 23.4 19.6 98 0.2 CALM 0 0 0 0 1006.8 1006.4 4.2
24/04:39am 20.0 23.6 19.7 98 0.2 CALM 0 0 0 0 1006.7 1006.3 4.2
24/04:30am 19.9 23.4 19.6 98 0.2 CALM 0 0 0 0 1006.6 1006.2 4.2
24/04:00am 19.9 23.4 19.6 98 0.2 CALM 0 6 0 3 1006.6 1006.2 4.2
24/03:30am 20.0 23.5 19.5 97 0.3 CALM 0 0 0 0 1006.8 1006.4 4.2
24/03:23am 20.0 23.5 19.5 97 0.3 CALM 0 0 0 0 1006.8 1006.4 4.2
24/03:00am 20.3 23.9 19.8 97 0.3 CALM 0 0 0 0 1006.7 1006.3 4.2
24/02:54am 20.4 24.1 19.9 97 0.3 CALM 0 0 0 0 1006.7 1006.3 4.2
24/02:46am 20.3 23.8 19.6 96 0.4 CALM 0 0 0 0 1006.8 1006.4 4.2
24/02:30am 20.3 23.8 19.5 95 0.5 CALM 0 0 0 0 1006.8 1006.4 4.2
24/02:22am 20.4 24.0 19.7 96 0.4 CALM 0 0 0 0 1006.8 1006.4 4.2
24/02:00am 20.6 24.3 19.9 96 0.4 CALM 0 0 0 0 1006.9 1006.6 4.2
24/01:30am 20.6 23.5 19.8 95 0.5 S 4 6 2 3 1007.2 1006.9 4.2
24/01:00am 21.2 24.6 20.2 94 0.6 WSW 2 7 1 4 1007.3 1007.0 4.2
24/12:47am 21.3 24.8 20.3 94 0.6 WSW 2 6 1 3 1007.1 1006.8 4.2
24/12:30am 21.6 24.6 20.8 95 0.5 WSW 6 7 3 4 1007.2 1006.9 4.2
24/12:29am 21.5 24.8 20.7 95 0.5 WSW 4 6 2 3 1007.2 1006.9 4.2
24/12:00am 21.6 24.8 20.4 93 0.8 SW 4 7 2 4 1007.4 1007.1 4.2
 
Date/Time
EDT
Tmp

°C
App
Tmp
°C
Dew
Point
°C
Rel
Hum
%
Delta-T

°C
Wind Press
QNH
hPa
Press
MSL
hPa
Rain
since
9 am
mm
Dir
 
Spd
km/h
Gust
km/h
Spd
kts
Gust
kts
23/11:30pm 21.7 25.1 20.2 91 1.0 SW 2 7 1 4 1007.5 1007.2 4.2
23/11:00pm 21.9 24.7 20.4 91 1.0 S 6 9 3 5 1007.5 1007.2 4.2
23/10:30pm 22.3 26.5 20.9 92 0.9 CALM 0 4 0 2 1007.6 1007.3 4.2
23/10:00pm 22.4 25.5 21.0 92 0.9 SSE 6 11 3 6 1007.6 1007.3 4.2
23/09:30pm 22.2 25.4 21.2 94 0.7 SSE 6 7 3 4 1007.3 1007.0 4.2
23/09:00pm 22.6 26.9 21.2 92 0.9 CALM 0 0 0 0 1007.2 1006.9 4.2
23/08:30pm 22.3 25.0 20.6 90 1.1 SSE 7 9 4 5 1006.8 1006.4 4.2
23/08:00pm 23.0 26.6 21.3 90 1.1 NW 4 9 2 5 1006.8 1006.4 4.0
23/07:30pm 23.0 24.7 20.9 88 1.4 WNW 13 19 7 10 1006.9 1006.6 3.4
23/07:01pm 22.7 23.7 21.0 90 1.1 NNE 17 28 9 15 1005.9 1005.5 3.0
23/07:00pm 22.8 23.4 21.1 90 1.1 NNE 19 28 10 15 1005.8 1005.4 3.0
23/06:42pm 22.7 22.9 20.2 86 1.6 N 19 32 10 17 1006.6 1006.2 1.8
23/06:30pm 24.3 25.1 19.1 73 3.3 SW 13 26 7 14 1006.7 1006.3 0.2
23/06:00pm 25.0 23.1 17.7 64 4.6 WSW 24 37 13 20 1006.3 1005.9 0.0
23/05:30pm 30.1 30.0 18.8 50 7.3 E 17 22 9 12 1005.2 1004.8 0.0
23/05:00pm 30.8 30.1 19.5 51 7.4 ENE 22 30 12 16 1004.9 1004.5 0.0
23/04:30pm 32.0 32.2 20.6 51 7.6 E 20 28 11 15 1005.3 1004.9 0.0
23/04:00pm 32.8 32.9 20.3 47 8.4 NE 20 30 11 16 1005.1 1004.7 0.0
23/03:30pm 31.2 31.2 18.9 48 8.0 ENE 17 32 9 17 1005.5 1005.1 0.0

Latest Capital City Observations: Canberra | Sydney | Melbourne | Brisbane | Adelaide | Perth | Hobart | Darwin

Other Formats:

Comma delimited format used in spreadsheet applications
http://www.bom.gov.au/fwo/IDN60901/IDN60901.94755.axf

JavaScript Object Notation format (JSON) in row-major order
http://www.bom.gov.au/fwo/IDN60901/IDN60901.94755.json